sensor_id;sensor_type;location;lat;lon;timestamp;P1;durP1;ratioP1;P2;durP2;ratioP2
23596;SDS011;40226;50.874;4.394;2023-05-18T00:01:28;17.85;;;5.18;;
23596;SDS011;40226;50.874;4.394;2023-05-18T00:03:54;16.60;;;4.88;;
23596;SDS011;40226;50.874;4.394;2023-05-18T00:06:21;19.58;;;5.03;;
23596;SDS011;40226;50.874;4.394;2023-05-18T00:08:49;21.67;;;5.40;;
23596;SDS011;40226;50.874;4.394;2023-05-18T00:11:15;14.50;;;5.63;;
23596;SDS011;40226;50.874;4.394;2023-05-18T00:13:42;22.75;;;5.07;;
23596;SDS011;40226;50.874;4.394;2023-05-18T00:16:08;16.33;;;5.63;;
23596;SDS011;40226;50.874;4.394;2023-05-18T00:18:36;22.30;;;5.97;;
23596;SDS011;40226;50.874;4.394;2023-05-18T00:21:01;18.95;;;5.35;;
23596;SDS011;40226;50.874;4.394;2023-05-18T00:23:33;13.68;;;5.32;;
23596;SDS011;40226;50.874;4.394;2023-05-18T00:28:29;18.83;;;4.97;;
23596;SDS011;40226;50.874;4.394;2023-05-18T00:30:55;19.77;;;5.45;;
23596;SDS011;40226;50.874;4.394;2023-05-18T00:33:21;25.88;;;5.40;;
23596;SDS011;40226;50.874;4.394;2023-05-18T00:35:54;14.48;;;4.85;;
23596;SDS011;40226;50.874;4.394;2023-05-18T00:38:21;17.70;;;5.53;;
23596;SDS011;40226;50.874;4.394;2023-05-18T00:40:46;19.55;;;5.65;;
23596;SDS011;40226;50.874;4.394;2023-05-18T00:43:12;18.13;;;5.40;;
23596;SDS011;40226;50.874;4.394;2023-05-18T00:45:39;15.73;;;4.85;;
23596;SDS011;40226;50.874;4.394;2023-05-18T00:48:05;17.08;;;5.38;;
23596;SDS011;40226;50.874;4.394;2023-05-18T00:50:31;15.15;;;5.07;;
23596;SDS011;40226;50.874;4.394;2023-05-18T00:52:56;13.30;;;4.97;;
23596;SDS011;40226;50.874;4.394;2023-05-18T00:55:22;16.05;;;5.30;;
23596;SDS011;40226;50.874;4.394;2023-05-18T00:57:48;17.60;;;5.75;;
23596;SDS011;40226;50.874;4.394;2023-05-18T01:00:14;17.65;;;5.32;;
23596;SDS011;40226;50.874;4.394;2023-05-18T01:02:40;12.38;;;4.80;;
23596;SDS011;40226;50.874;4.394;2023-05-18T01:05:09;21.20;;;5.40;;
23596;SDS011;40226;50.874;4.394;2023-05-18T01:07:37;20.25;;;6.07;;
23596;SDS011;40226;50.874;4.394;2023-05-18T01:10:06;18.17;;;5.60;;
23596;SDS011;40226;50.874;4.394;2023-05-18T01:12:53;17.40;;;5.70;;
23596;SDS011;40226;50.874;4.394;2023-05-18T01:15:26;20.55;;;5.53;;
23596;SDS011;40226;50.874;4.394;2023-05-18T01:28:31;19.83;;;5.85;;
23596;SDS011;40226;50.874;4.394;2023-05-18T01:30:58;22.50;;;6.30;;
23596;SDS011;40226;50.874;4.394;2023-05-18T01:33:24;16.80;;;5.88;;
23596;SDS011;40226;50.874;4.394;2023-05-18T01:35:51;16.45;;;5.50;;
23596;SDS011;40226;50.874;4.394;2023-05-18T01:41:02;18.95;;;6.47;;
23596;SDS011;40226;50.874;4.394;2023-05-18T01:46:37;18.27;;;5.50;;
23596;SDS011;40226;50.874;4.394;2023-05-18T01:49:12;15.13;;;5.40;;
23596;SDS011;40226;50.874;4.394;2023-05-18T01:51:45;16.33;;;5.50;;
23596;SDS011;40226;50.874;4.394;2023-05-18T01:54:13;25.40;;;6.47;;
23596;SDS011;40226;50.874;4.394;2023-05-18T01:56:41;21.88;;;6.55;;
23596;SDS011;40226;50.874;4.394;2023-05-18T01:59:18;19.77;;;6.00;;
23596;SDS011;40226;50.874;4.394;2023-05-18T02:04:13;18.10;;;5.47;;
23596;SDS011;40226;50.874;4.394;2023-05-18T02:06:39;21.63;;;5.95;;
23596;SDS011;40226;50.874;4.394;2023-05-18T02:09:04;20.63;;;5.82;;
23596;SDS011;40226;50.874;4.394;2023-05-18T02:11:31;22.83;;;6.65;;
23596;SDS011;40226;50.874;4.394;2023-05-18T02:13:56;14.18;;;5.65;;
23596;SDS011;40226;50.874;4.394;2023-05-18T02:16:22;17.52;;;6.10;;
23596;SDS011;40226;50.874;4.394;2023-05-18T02:18:47;19.90;;;6.32;;
23596;SDS011;40226;50.874;4.394;2023-05-18T02:21:13;20.38;;;6.00;;
23596;SDS011;40226;50.874;4.394;2023-05-18T02:23:39;18.20;;;6.35;;
23596;SDS011;40226;50.874;4.394;2023-05-18T02:26:05;14.50;;;6.43;;
23596;SDS011;40226;50.874;4.394;2023-05-18T02:28:31;20.77;;;6.32;;
23596;SDS011;40226;50.874;4.394;2023-05-18T02:31:07;22.65;;;6.30;;
23596;SDS011;40226;50.874;4.394;2023-05-18T02:33:33;19.63;;;6.28;;
23596;SDS011;40226;50.874;4.394;2023-05-18T02:36:05;18.60;;;6.28;;
23596;SDS011;40226;50.874;4.394;2023-05-18T02:38:38;19.90;;;6.10;;
23596;SDS011;40226;50.874;4.394;2023-05-18T02:41:04;17.67;;;6.32;;
23596;SDS011;40226;50.874;4.394;2023-05-18T02:43:30;16.42;;;6.25;;
23596;SDS011;40226;50.874;4.394;2023-05-18T02:45:56;15.30;;;6.60;;
23596;SDS011;40226;50.874;4.394;2023-05-18T02:48:22;15.70;;;6.55;;
23596;SDS011;40226;50.874;4.394;2023-05-18T02:50:48;16.25;;;7.10;;
23596;SDS011;40226;50.874;4.394;2023-05-18T02:53:13;19.33;;;6.13;;
23596;SDS011;40226;50.874;4.394;2023-05-18T02:55:39;19.67;;;6.72;;
23596;SDS011;40226;50.874;4.394;2023-05-18T02:58:05;22.55;;;6.40;;
23596;SDS011;40226;50.874;4.394;2023-05-18T03:00:32;19.92;;;6.63;;
23596;SDS011;40226;50.874;4.394;2023-05-18T03:02:58;18.02;;;6.78;;
23596;SDS011;40226;50.874;4.394;2023-05-18T03:05:26;17.77;;;7.32;;
23596;SDS011;40226;50.874;4.394;2023-05-18T03:07:52;15.93;;;6.75;;
23596;SDS011;40226;50.874;4.394;2023-05-18T03:10:18;21.45;;;6.80;;
23596;SDS011;40226;50.874;4.394;2023-05-18T03:12:47;21.85;;;6.60;;
23596;SDS011;40226;50.874;4.394;2023-05-18T03:15:13;16.10;;;6.80;;
23596;SDS011;40226;50.874;4.394;2023-05-18T03:17:43;16.65;;;7.50;;
23596;SDS011;40226;50.874;4.394;2023-05-18T03:20:09;20.88;;;7.00;;
23596;SDS011;40226;50.874;4.394;2023-05-18T03:22:36;20.48;;;7.50;;
23596;SDS011;40226;50.874;4.394;2023-05-18T03:25:05;15.13;;;6.68;;
23596;SDS011;40226;50.874;4.394;2023-05-18T03:27:32;20.35;;;6.93;;
23596;SDS011;40226;50.874;4.394;2023-05-18T03:29:58;23.58;;;7.40;;
23596;SDS011;40226;50.874;4.394;2023-05-18T03:32:24;15.18;;;7.40;;
23596;SDS011;40226;50.874;4.394;2023-05-18T03:34:52;17.58;;;6.32;;
23596;SDS011;40226;50.874;4.394;2023-05-18T03:37:18;15.32;;;6.45;;
23596;SDS011;40226;50.874;4.394;2023-05-18T03:39:44;18.23;;;7.53;;
23596;SDS011;40226;50.874;4.394;2023-05-18T03:42:11;21.50;;;6.97;;
23596;SDS011;40226;50.874;4.394;2023-05-18T03:44:37;18.63;;;6.40;;
23596;SDS011;40226;50.874;4.394;2023-05-18T03:47:03;23.35;;;7.50;;
23596;SDS011;40226;50.874;4.394;2023-05-18T03:49:32;18.23;;;7.05;;
23596;SDS011;40226;50.874;4.394;2023-05-18T03:51:58;16.23;;;6.90;;
23596;SDS011;40226;50.874;4.394;2023-05-18T03:54:24;18.88;;;7.55;;
23596;SDS011;40226;50.874;4.394;2023-05-18T03:56:50;22.35;;;7.63;;
23596;SDS011;40226;50.874;4.394;2023-05-18T03:59:15;16.60;;;7.43;;
23596;SDS011;40226;50.874;4.394;2023-05-18T04:01:41;19.98;;;7.80;;
23596;SDS011;40226;50.874;4.394;2023-05-18T04:04:08;23.05;;;7.57;;
23596;SDS011;40226;50.874;4.394;2023-05-18T04:06:44;19.50;;;7.20;;
23596;SDS011;40226;50.874;4.394;2023-05-18T04:09:17;15.43;;;7.18;;
23596;SDS011;40226;50.874;4.394;2023-05-18T04:11:43;20.17;;;7.72;;
23596;SDS011;40226;50.874;4.394;2023-05-18T04:14:10;18.73;;;7.18;;
23596;SDS011;40226;50.874;4.394;2023-05-18T04:16:36;13.75;;;6.45;;
23596;SDS011;40226;50.874;4.394;2023-05-18T04:19:02;16.95;;;7.20;;
23596;SDS011;40226;50.874;4.394;2023-05-18T04:21:30;20.63;;;7.10;;
23596;SDS011;40226;50.874;4.394;2023-05-18T04:24:03;18.88;;;6.93;;
23596;SDS011;40226;50.874;4.394;2023-05-18T04:26:29;18.00;;;7.18;;
23596;SDS011;40226;50.874;4.394;2023-05-18T04:29:00;19.45;;;7.53;;
23596;SDS011;40226;50.874;4.394;2023-05-18T04:31:31;22.98;;;7.40;;
23596;SDS011;40226;50.874;4.394;2023-05-18T04:33:58;23.05;;;7.43;;
23596;SDS011;40226;50.874;4.394;2023-05-18T04:36:25;17.35;;;6.93;;
23596;SDS011;40226;50.874;4.394;2023-05-18T04:38:55;17.58;;;7.40;;
23596;SDS011;40226;50.874;4.394;2023-05-18T04:41:23;20.30;;;6.88;;
23596;SDS011;40226;50.874;4.394;2023-05-18T04:43:54;17.90;;;7.60;;
23596;SDS011;40226;50.874;4.394;2023-05-18T04:46:21;18.27;;;7.35;;
23596;SDS011;40226;50.874;4.394;2023-05-18T04:48:47;20.08;;;7.47;;
23596;SDS011;40226;50.874;4.394;2023-05-18T04:51:17;20.48;;;8.05;;
23596;SDS011;40226;50.874;4.394;2023-05-18T04:53:45;26.38;;;7.70;;
23596;SDS011;40226;50.874;4.394;2023-05-18T04:56:14;16.08;;;6.65;;
23596;SDS011;40226;50.874;4.394;2023-05-18T04:58:41;22.58;;;7.35;;
23596;SDS011;40226;50.874;4.394;2023-05-18T05:01:15;21.42;;;7.63;;
23596;SDS011;40226;50.874;4.394;2023-05-18T05:03:41;19.88;;;7.68;;
23596;SDS011;40226;50.874;4.394;2023-05-18T05:06:07;16.88;;;7.25;;
23596;SDS011;40226;50.874;4.394;2023-05-18T05:08:33;20.25;;;6.90;;
23596;SDS011;40226;50.874;4.394;2023-05-18T05:11:00;15.90;;;7.40;;
23596;SDS011;40226;50.874;4.394;2023-05-18T05:13:26;19.98;;;7.70;;
23596;SDS011;40226;50.874;4.394;2023-05-18T05:15:52;17.48;;;7.43;;
23596;SDS011;40226;50.874;4.394;2023-05-18T05:18:18;16.50;;;7.60;;
23596;SDS011;40226;50.874;4.394;2023-05-18T05:20:43;15.07;;;6.90;;
23596;SDS011;40226;50.874;4.394;2023-05-18T05:23:09;22.75;;;7.40;;
23596;SDS011;40226;50.874;4.394;2023-05-18T05:25:34;19.48;;;7.93;;
23596;SDS011;40226;50.874;4.394;2023-05-18T05:28:00;15.60;;;6.90;;
23596;SDS011;40226;50.874;4.394;2023-05-18T05:30:26;16.92;;;7.55;;
23596;SDS011;40226;50.874;4.394;2023-05-18T05:32:51;15.75;;;7.45;;
23596;SDS011;40226;50.874;4.394;2023-05-18T05:35:17;19.65;;;7.72;;
23596;SDS011;40226;50.874;4.394;2023-05-18T05:37:43;21.17;;;8.10;;
23596;SDS011;40226;50.874;4.394;2023-05-18T05:40:08;17.13;;;7.97;;
23596;SDS011;40226;50.874;4.394;2023-05-18T05:42:34;20.38;;;8.15;;
23596;SDS011;40226;50.874;4.394;2023-05-18T05:45:01;17.58;;;7.88;;
23596;SDS011;40226;50.874;4.394;2023-05-18T05:47:27;21.25;;;7.88;;
23596;SDS011;40226;50.874;4.394;2023-05-18T05:49:53;19.70;;;7.90;;
23596;SDS011;40226;50.874;4.394;2023-05-18T05:52:19;24.05;;;8.77;;
23596;SDS011;40226;50.874;4.394;2023-05-18T05:54:45;23.08;;;8.02;;
23596;SDS011;40226;50.874;4.394;2023-05-18T05:57:11;19.60;;;8.40;;
23596;SDS011;40226;50.874;4.394;2023-05-18T05:59:36;16.30;;;7.70;;
23596;SDS011;40226;50.874;4.394;2023-05-18T06:02:02;19.35;;;8.10;;
23596;SDS011;40226;50.874;4.394;2023-05-18T06:04:28;21.20;;;8.80;;
23596;SDS011;40226;50.874;4.394;2023-05-18T06:06:53;19.55;;;8.82;;
23596;SDS011;40226;50.874;4.394;2023-05-18T06:09:19;21.15;;;8.30;;
23596;SDS011;40226;50.874;4.394;2023-05-18T06:11:45;19.40;;;8.55;;
23596;SDS011;40226;50.874;4.394;2023-05-18T06:14:10;18.77;;;8.00;;
23596;SDS011;40226;50.874;4.394;2023-05-18T06:16:36;21.65;;;9.02;;
23596;SDS011;40226;50.874;4.394;2023-05-18T06:19:02;18.00;;;7.47;;
23596;SDS011;40226;50.874;4.394;2023-05-18T06:21:28;21.50;;;9.48;;
23596;SDS011;40226;50.874;4.394;2023-05-18T06:23:54;19.08;;;8.07;;
23596;SDS011;40226;50.874;4.394;2023-05-18T06:26:20;22.65;;;8.13;;
23596;SDS011;40226;50.874;4.394;2023-05-18T06:28:47;22.42;;;9.52;;
23596;SDS011;40226;50.874;4.394;2023-05-18T06:31:13;24.45;;;8.70;;
23596;SDS011;40226;50.874;4.394;2023-05-18T06:33:39;21.63;;;9.60;;
23596;SDS011;40226;50.874;4.394;2023-05-18T06:36:05;20.40;;;8.65;;
23596;SDS011;40226;50.874;4.394;2023-05-18T06:38:31;26.42;;;8.65;;
23596;SDS011;40226;50.874;4.394;2023-05-18T06:40:57;24.55;;;8.63;;
23596;SDS011;40226;50.874;4.394;2023-05-18T06:43:22;22.27;;;8.27;;
23596;SDS011;40226;50.874;4.394;2023-05-18T06:45:52;21.70;;;9.43;;
23596;SDS011;40226;50.874;4.394;2023-05-18T06:48:18;24.05;;;9.48;;
23596;SDS011;40226;50.874;4.394;2023-05-18T06:50:45;19.17;;;8.80;;
23596;SDS011;40226;50.874;4.394;2023-05-18T06:53:10;21.20;;;8.77;;
23596;SDS011;40226;50.874;4.394;2023-05-18T06:55:37;22.67;;;8.90;;
23596;SDS011;40226;50.874;4.394;2023-05-18T06:58:03;16.27;;;8.50;;
23596;SDS011;40226;50.874;4.394;2023-05-18T07:00:28;20.90;;;9.13;;
23596;SDS011;40226;50.874;4.394;2023-05-18T07:02:54;18.55;;;8.95;;
23596;SDS011;40226;50.874;4.394;2023-05-18T07:05:19;19.77;;;9.20;;
23596;SDS011;40226;50.874;4.394;2023-05-18T07:07:45;22.35;;;9.18;;
23596;SDS011;40226;50.874;4.394;2023-05-18T07:10:11;24.35;;;9.80;;
23596;SDS011;40226;50.874;4.394;2023-05-18T07:12:37;24.92;;;9.57;;
23596;SDS011;40226;50.874;4.394;2023-05-18T07:15:02;24.75;;;9.07;;
23596;SDS011;40226;50.874;4.394;2023-05-18T07:17:28;24.40;;;9.52;;
23596;SDS011;40226;50.874;4.394;2023-05-18T07:19:54;19.17;;;8.77;;
23596;SDS011;40226;50.874;4.394;2023-05-18T07:22:20;21.70;;;10.27;;
23596;SDS011;40226;50.874;4.394;2023-05-18T07:24:45;21.80;;;9.70;;
23596;SDS011;40226;50.874;4.394;2023-05-18T07:27:11;19.20;;;9.00;;
23596;SDS011;40226;50.874;4.394;2023-05-18T07:29:37;24.83;;;9.15;;
23596;SDS011;40226;50.874;4.394;2023-05-18T07:32:02;22.10;;;9.82;;
23596;SDS011;40226;50.874;4.394;2023-05-18T07:34:29;19.27;;;9.40;;
23596;SDS011;40226;50.874;4.394;2023-05-18T07:36:55;23.48;;;9.73;;
23596;SDS011;40226;50.874;4.394;2023-05-18T07:39:21;20.83;;;9.75;;
23596;SDS011;40226;50.874;4.394;2023-05-18T07:41:52;23.48;;;9.60;;
23596;SDS011;40226;50.874;4.394;2023-05-18T07:44:19;22.15;;;10.27;;
23596;SDS011;40226;50.874;4.394;2023-05-18T07:46:44;19.23;;;9.52;;
23596;SDS011;40226;50.874;4.394;2023-05-18T07:49:10;26.25;;;12.45;;
23596;SDS011;40226;50.874;4.394;2023-05-18T07:51:37;21.30;;;9.43;;
23596;SDS011;40226;50.874;4.394;2023-05-18T07:54:03;19.90;;;9.50;;
23596;SDS011;40226;50.874;4.394;2023-05-18T07:56:29;20.50;;;9.27;;
23596;SDS011;40226;50.874;4.394;2023-05-18T07:58:55;25.27;;;9.55;;
23596;SDS011;40226;50.874;4.394;2023-05-18T08:01:21;23.00;;;9.57;;
23596;SDS011;40226;50.874;4.394;2023-05-18T08:03:51;43.13;;;18.30;;
23596;SDS011;40226;50.874;4.394;2023-05-18T08:06:17;21.52;;;9.80;;
23596;SDS011;40226;50.874;4.394;2023-05-18T08:08:43;21.15;;;9.50;;
23596;SDS011;40226;50.874;4.394;2023-05-18T08:11:08;18.02;;;9.25;;
23596;SDS011;40226;50.874;4.394;2023-05-18T08:13:34;20.92;;;9.95;;
23596;SDS011;40226;50.874;4.394;2023-05-18T08:16:00;21.73;;;9.63;;
23596;SDS011;40226;50.874;4.394;2023-05-18T08:18:25;20.38;;;9.95;;
23596;SDS011;40226;50.874;4.394;2023-05-18T08:20:51;22.30;;;9.63;;
23596;SDS011;40226;50.874;4.394;2023-05-18T08:23:20;28.35;;;9.93;;
23596;SDS011;40226;50.874;4.394;2023-05-18T08:25:47;22.08;;;10.00;;
23596;SDS011;40226;50.874;4.394;2023-05-18T08:28:13;19.50;;;8.95;;
23596;SDS011;40226;50.874;4.394;2023-05-18T08:30:38;22.73;;;9.05;;
23596;SDS011;40226;50.874;4.394;2023-05-18T08:33:04;20.67;;;8.75;;
23596;SDS011;40226;50.874;4.394;2023-05-18T08:35:30;18.00;;;8.85;;
23596;SDS011;40226;50.874;4.394;2023-05-18T08:37:56;17.60;;;8.95;;
23596;SDS011;40226;50.874;4.394;2023-05-18T08:40:22;20.20;;;9.05;;
23596;SDS011;40226;50.874;4.394;2023-05-18T08:43:03;20.48;;;9.13;;
23596;SDS011;40226;50.874;4.394;2023-05-18T08:48:14;20.52;;;8.50;;
23596;SDS011;40226;50.874;4.394;2023-05-18T08:50:40;19.92;;;9.13;;
23596;SDS011;40226;50.874;4.394;2023-05-18T08:53:08;25.02;;;10.70;;
23596;SDS011;40226;50.874;4.394;2023-05-18T08:55:35;21.30;;;8.60;;
23596;SDS011;40226;50.874;4.394;2023-05-18T08:58:02;22.13;;;8.75;;
23596;SDS011;40226;50.874;4.394;2023-05-18T09:00:28;21.73;;;9.18;;
23596;SDS011;40226;50.874;4.394;2023-05-18T09:02:56;35.95;;;15.63;;
23596;SDS011;40226;50.874;4.394;2023-05-18T09:05:24;25.08;;;9.68;;
23596;SDS011;40226;50.874;4.394;2023-05-18T09:07:50;16.88;;;8.20;;
23596;SDS011;40226;50.874;4.394;2023-05-18T09:10:16;24.80;;;8.73;;
23596;SDS011;40226;50.874;4.394;2023-05-18T09:12:43;19.42;;;8.85;;
23596;SDS011;40226;50.874;4.394;2023-05-18T09:15:11;18.63;;;8.73;;
23596;SDS011;40226;50.874;4.394;2023-05-18T09:17:40;18.35;;;8.23;;
23596;SDS011;40226;50.874;4.394;2023-05-18T09:20:06;19.35;;;8.82;;
23596;SDS011;40226;50.874;4.394;2023-05-18T09:22:34;24.27;;;9.23;;
23596;SDS011;40226;50.874;4.394;2023-05-18T09:25:00;19.05;;;8.52;;
23596;SDS011;40226;50.874;4.394;2023-05-18T09:27:27;15.35;;;8.43;;
23596;SDS011;40226;50.874;4.394;2023-05-18T09:29:54;19.17;;;8.85;;
23596;SDS011;40226;50.874;4.394;2023-05-18T09:32:21;24.77;;;8.23;;
23596;SDS011;40226;50.874;4.394;2023-05-18T09:34:48;18.75;;;7.53;;
23596;SDS011;40226;50.874;4.394;2023-05-18T09:37:18;18.10;;;6.82;;
23596;SDS011;40226;50.874;4.394;2023-05-18T09:39:44;23.10;;;6.85;;
23596;SDS011;40226;50.874;4.394;2023-05-18T09:42:25;19.05;;;6.18;;
23596;SDS011;40226;50.874;4.394;2023-05-18T09:47:42;14.70;;;7.10;;
23596;SDS011;40226;50.874;4.394;2023-05-18T09:50:08;14.45;;;5.85;;
23596;SDS011;40226;50.874;4.394;2023-05-18T09:52:41;14.48;;;4.72;;
23596;SDS011;40226;50.874;4.394;2023-05-18T09:55:11;14.38;;;6.82;;
23596;SDS011;40226;50.874;4.394;2023-05-18T09:57:41;16.90;;;6.97;;
23596;SDS011;40226;50.874;4.394;2023-05-18T10:00:08;12.88;;;7.18;;
23596;SDS011;40226;50.874;4.394;2023-05-18T10:02:39;15.68;;;8.02;;
23596;SDS011;40226;50.874;4.394;2023-05-18T10:05:25;17.40;;;7.68;;
23596;SDS011;40226;50.874;4.394;2023-05-18T10:07:52;15.95;;;7.53;;
23596;SDS011;40226;50.874;4.394;2023-05-18T10:10:19;13.30;;;6.75;;
23596;SDS011;40226;50.874;4.394;2023-05-18T10:12:46;23.75;;;8.18;;
23596;SDS011;40226;50.874;4.394;2023-05-18T10:15:15;15.93;;;7.28;;
23596;SDS011;40226;50.874;4.394;2023-05-18T10:17:43;14.20;;;7.05;;
23596;SDS011;40226;50.874;4.394;2023-05-18T10:20:11;18.30;;;7.28;;
23596;SDS011;40226;50.874;4.394;2023-05-18T10:22:41;18.08;;;6.95;;
23596;SDS011;40226;50.874;4.394;2023-05-18T10:25:10;15.15;;;6.35;;
23596;SDS011;40226;50.874;4.394;2023-05-18T10:27:38;14.80;;;5.72;;
23596;SDS011;40226;50.874;4.394;2023-05-18T10:30:08;18.65;;;7.65;;
23596;SDS011;40226;50.874;4.394;2023-05-18T10:32:34;15.82;;;5.57;;
23596;SDS011;40226;50.874;4.394;2023-05-18T10:35:02;14.88;;;5.82;;
23596;SDS011;40226;50.874;4.394;2023-05-18T10:37:29;17.30;;;6.50;;
23596;SDS011;40226;50.874;4.394;2023-05-18T10:39:57;15.07;;;6.72;;
23596;SDS011;40226;50.874;4.394;2023-05-18T10:42:24;16.00;;;6.38;;
23596;SDS011;40226;50.874;4.394;2023-05-18T10:44:53;16.02;;;6.90;;
23596;SDS011;40226;50.874;4.394;2023-05-18T10:47:23;16.73;;;6.68;;
23596;SDS011;40226;50.874;4.394;2023-05-18T10:49:51;11.93;;;5.70;;
23596;SDS011;40226;50.874;4.394;2023-05-18T10:52:18;13.02;;;6.63;;
23596;SDS011;40226;50.874;4.394;2023-05-18T10:54:45;16.90;;;7.30;;
23596;SDS011;40226;50.874;4.394;2023-05-18T10:57:16;16.85;;;7.43;;
23596;SDS011;40226;50.874;4.394;2023-05-18T10:59:44;11.68;;;6.28;;
23596;SDS011;40226;50.874;4.394;2023-05-18T11:02:11;13.90;;;6.25;;
23596;SDS011;40226;50.874;4.394;2023-05-18T11:04:40;13.88;;;6.32;;
23596;SDS011;40226;50.874;4.394;2023-05-18T11:07:09;13.65;;;5.65;;
23596;SDS011;40226;50.874;4.394;2023-05-18T11:09:36;13.90;;;5.80;;
23596;SDS011;40226;50.874;4.394;2023-05-18T11:12:05;14.93;;;5.68;;
23596;SDS011;40226;50.874;4.394;2023-05-18T11:14:46;14.65;;;5.78;;
23596;SDS011;40226;50.874;4.394;2023-05-18T11:17:15;15.73;;;5.88;;
23596;SDS011;40226;50.874;4.394;2023-05-18T11:27:52;18.95;;;7.07;;
23596;SDS011;40226;50.874;4.394;2023-05-18T11:33:11;20.52;;;6.90;;
23596;SDS011;40226;50.874;4.394;2023-05-18T11:35:57;12.20;;;6.72;;
23596;SDS011;40226;50.874;4.394;2023-05-18T11:39:09;15.77;;;6.28;;
23596;SDS011;40226;50.874;4.394;2023-05-18T11:41:28;15.70;;;6.82;;
23596;SDS011;40226;50.874;4.394;2023-05-18T11:49:35;12.73;;;6.10;;
23596;SDS011;40226;50.874;4.394;2023-05-18T11:55:13;17.40;;;6.35;;
23596;SDS011;40226;50.874;4.394;2023-05-18T11:59:59;14.25;;;6.45;;
23596;SDS011;40226;50.874;4.394;2023-05-18T12:02:30;12.90;;;6.10;;
23596;SDS011;40226;50.874;4.394;2023-05-18T12:04:56;13.48;;;6.07;;
23596;SDS011;40226;50.874;4.394;2023-05-18T12:07:24;16.58;;;5.93;;
23596;SDS011;40226;50.874;4.394;2023-05-18T12:09:52;17.20;;;6.43;;
23596;SDS011;40226;50.874;4.394;2023-05-18T12:12:22;16.63;;;6.03;;
23596;SDS011;40226;50.874;4.394;2023-05-18T12:14:58;12.75;;;5.68;;
23596;SDS011;40226;50.874;4.394;2023-05-18T12:17:36;13.82;;;6.57;;
23596;SDS011;40226;50.874;4.394;2023-05-18T12:20:04;15.77;;;6.13;;
23596;SDS011;40226;50.874;4.394;2023-05-18T12:22:31;17.65;;;6.53;;
23596;SDS011;40226;50.874;4.394;2023-05-18T12:24:57;13.52;;;5.80;;
23596;SDS011;40226;50.874;4.394;2023-05-18T12:27:22;17.60;;;6.85;;
23596;SDS011;40226;50.874;4.394;2023-05-18T12:29:50;14.18;;;6.25;;
23596;SDS011;40226;50.874;4.394;2023-05-18T12:32:16;14.52;;;6.53;;
23596;SDS011;40226;50.874;4.394;2023-05-18T12:34:43;13.13;;;6.35;;
23596;SDS011;40226;50.874;4.394;2023-05-18T12:37:09;19.33;;;6.60;;
23596;SDS011;40226;50.874;4.394;2023-05-18T12:39:35;16.45;;;6.85;;
23596;SDS011;40226;50.874;4.394;2023-05-18T12:42:07;15.18;;;6.85;;
23596;SDS011;40226;50.874;4.394;2023-05-18T12:44:37;10.70;;;6.75;;
23596;SDS011;40226;50.874;4.394;2023-05-18T12:47:12;12.55;;;7.20;;
23596;SDS011;40226;50.874;4.394;2023-05-18T12:49:39;11.80;;;7.88;;
23596;SDS011;40226;50.874;4.394;2023-05-18T12:52:12;30.52;;;17.80;;
23596;SDS011;40226;50.874;4.394;2023-05-18T12:54:57;14.98;;;6.95;;
23596;SDS011;40226;50.874;4.394;2023-05-18T12:57:30;12.88;;;7.05;;
23596;SDS011;40226;50.874;4.394;2023-05-18T12:59:57;10.98;;;6.05;;
23596;SDS011;40226;50.874;4.394;2023-05-18T13:02:43;12.70;;;5.78;;
23596;SDS011;40226;50.874;4.394;2023-05-18T13:05:09;15.27;;;6.65;;
23596;SDS011;40226;50.874;4.394;2023-05-18T13:07:36;13.13;;;7.00;;
23596;SDS011;40226;50.874;4.394;2023-05-18T13:10:07;19.30;;;10.77;;
23596;SDS011;40226;50.874;4.394;2023-05-18T13:12:41;14.07;;;5.90;;
23596;SDS011;40226;50.874;4.394;2023-05-18T13:15:18;10.05;;;5.75;;
23596;SDS011;40226;50.874;4.394;2023-05-18T13:20:23;11.18;;;5.65;;
23596;SDS011;40226;50.874;4.394;2023-05-18T13:23:19;11.65;;;5.18;;
23596;SDS011;40226;50.874;4.394;2023-05-18T13:25:46;13.52;;;5.90;;
23596;SDS011;40226;50.874;4.394;2023-05-18T13:28:13;13.10;;;6.15;;
23596;SDS011;40226;50.874;4.394;2023-05-18T13:30:40;11.60;;;6.55;;
23596;SDS011;40226;50.874;4.394;2023-05-18T13:33:07;17.15;;;6.47;;
23596;SDS011;40226;50.874;4.394;2023-05-18T13:35:34;15.27;;;6.18;;
23596;SDS011;40226;50.874;4.394;2023-05-18T13:38:01;15.73;;;6.65;;
23596;SDS011;40226;50.874;4.394;2023-05-18T13:40:26;14.02;;;6.80;;
23596;SDS011;40226;50.874;4.394;2023-05-18T13:42:52;15.73;;;6.40;;
23596;SDS011;40226;50.874;4.394;2023-05-18T13:45:18;14.18;;;6.68;;
23596;SDS011;40226;50.874;4.394;2023-05-18T13:47:45;12.18;;;6.05;;
23596;SDS011;40226;50.874;4.394;2023-05-18T13:50:14;13.48;;;6.20;;
23596;SDS011;40226;50.874;4.394;2023-05-18T13:52:40;14.00;;;6.13;;
23596;SDS011;40226;50.874;4.394;2023-05-18T13:55:06;13.35;;;6.25;;
23596;SDS011;40226;50.874;4.394;2023-05-18T13:57:32;12.45;;;5.68;;
23596;SDS011;40226;50.874;4.394;2023-05-18T13:59:58;11.65;;;5.40;;
23596;SDS011;40226;50.874;4.394;2023-05-18T14:02:27;11.43;;;5.82;;
23596;SDS011;40226;50.874;4.394;2023-05-18T14:04:53;10.55;;;5.35;;
23596;SDS011;40226;50.874;4.394;2023-05-18T14:07:19;9.45;;;5.28;;
23596;SDS011;40226;50.874;4.394;2023-05-18T14:09:45;14.73;;;5.30;;
23596;SDS011;40226;50.874;4.394;2023-05-18T14:12:10;16.20;;;5.63;;
23596;SDS011;40226;50.874;4.394;2023-05-18T14:14:37;12.18;;;5.55;;
23596;SDS011;40226;50.874;4.394;2023-05-18T14:17:03;13.23;;;5.95;;
23596;SDS011;40226;50.874;4.394;2023-05-18T14:19:28;12.38;;;5.57;;
23596;SDS011;40226;50.874;4.394;2023-05-18T14:21:54;12.23;;;5.20;;
23596;SDS011;40226;50.874;4.394;2023-05-18T14:24:20;11.73;;;5.38;;
23596;SDS011;40226;50.874;4.394;2023-05-18T14:26:45;13.45;;;5.28;;
23596;SDS011;40226;50.874;4.394;2023-05-18T14:29:11;12.20;;;5.43;;
23596;SDS011;40226;50.874;4.394;2023-05-18T14:31:36;11.13;;;4.80;;
23596;SDS011;40226;50.874;4.394;2023-05-18T14:34:02;11.57;;;5.28;;
23596;SDS011;40226;50.874;4.394;2023-05-18T14:36:28;13.82;;;5.60;;
23596;SDS011;40226;50.874;4.394;2023-05-18T14:38:53;11.65;;;5.35;;
23596;SDS011;40226;50.874;4.394;2023-05-18T14:41:19;13.00;;;5.38;;
23596;SDS011;40226;50.874;4.394;2023-05-18T14:43:45;13.45;;;5.45;;
23596;SDS011;40226;50.874;4.394;2023-05-18T14:46:11;13.80;;;5.50;;
23596;SDS011;40226;50.874;4.394;2023-05-18T14:48:37;10.35;;;5.78;;
23596;SDS011;40226;50.874;4.394;2023-05-18T14:51:03;11.68;;;5.50;;
23596;SDS011;40226;50.874;4.394;2023-05-18T14:53:29;16.77;;;6.15;;
23596;SDS011;40226;50.874;4.394;2023-05-18T14:55:54;13.38;;;5.82;;
23596;SDS011;40226;50.874;4.394;2023-05-18T14:58:20;14.10;;;5.93;;
23596;SDS011;40226;50.874;4.394;2023-05-18T15:00:46;12.93;;;5.63;;
23596;SDS011;40226;50.874;4.394;2023-05-18T15:03:12;15.57;;;5.70;;
23596;SDS011;40226;50.874;4.394;2023-05-18T15:05:38;13.43;;;5.53;;
23596;SDS011;40226;50.874;4.394;2023-05-18T15:08:04;11.57;;;5.15;;
23596;SDS011;40226;50.874;4.394;2023-05-18T15:10:30;16.02;;;5.57;;
23596;SDS011;40226;50.874;4.394;2023-05-18T15:12:55;13.63;;;4.72;;
23596;SDS011;40226;50.874;4.394;2023-05-18T15:15:21;11.35;;;5.32;;
23596;SDS011;40226;50.874;4.394;2023-05-18T15:17:47;13.05;;;4.75;;
23596;SDS011;40226;50.874;4.394;2023-05-18T15:20:12;12.60;;;5.20;;
23596;SDS011;40226;50.874;4.394;2023-05-18T15:22:38;15.10;;;5.15;;
23596;SDS011;40226;50.874;4.394;2023-05-18T15:25:05;18.00;;;5.82;;
23596;SDS011;40226;50.874;4.394;2023-05-18T15:27:32;11.90;;;5.13;;